KSTSKSQL

Guest
Details From KSTS - Charles M. Schulz - Sonoma Co
To KSQL - San Carlos
Flight Number -
Tags generated
Created
Modified
Stats Distance 66 nm / 121 km
Max Altitude 0 ft / 0 m
Waypoints 3
Social Downloads 0
Likes 0
Share VATSIM

Download

Looking for another format? Having issues loading an existing format? Contact us
Advertisement - Login to hide

Notes

Basic altitude profile: - Ascent Rate: 2500ft/min - Ascent Speed: 200kts - Cruise Altitude: 35000ft - Cruise Speed: 420kts - Descent Rate: 1500ft/min - Descent Speed: 250kts Options: - Use NATs: yes - Use PACOTS: yes - Use low airways: yes - Use high airways: no

Route

KSTS STS KSQL

ID Type Via Altitude Latitude Longitude Leg Dist Tot Dist Heading (true) Name
O KSTS APT - 0 ft / 0 m 38.50898˚ -122.81292˚ - 0 nm - Charles M. Schulz - Sonoma Co
STS VOR - 0 ft / 0 m 38.50819˚ -122.81061˚ 0 nm 0 nm 113° / 113° SANTA ROSA VOR-DME
O KSQL APT - 0 ft / 0 m 37.51173˚ -122.24939˚ 65 nm 65 nm 156° / 156° San Carlos

Altitude Profile

Advertisement - Login to hide

KSTS

Details ICAO KSTS (STS)
Name Charles M. Schulz - Sonoma Co
Region United States
Timezone America/Los_Angeles (UTC-7.0)
Stats Elevation 128 ft / 39 m (AMSL)
Location 38.508979° -122.812922°
Runways 2
Magnetic Variation 13.680° E

METAR

KSTS 270553Z AUTO 00000KT 10SM CLR 12/09 A3001 RMK AO2 SLP156 T01220094 10228 20122 51009

Decode

TAF

KSTS 270039Z 2701/2724 17009KT P6SM SCT050 FM270300 17005KT P6SM SKC FM271000 00000KT P6SM BKN007 FM271300 00000KT P6SM OVC006 FM271800 17008KT P6SM SCT010 FM272000 17010KT P6SM SKC

Decode

Departure Runways

ID Width Length Bearing (true) Bearing (mag) Surface Threshold Offset Overrun Length
01 98 ft / 30 m 5,008 ft / 1,527 m 29.05° 15.37° Asphalt 0 ft / 0 m 0 ft / 0 m
14 151 ft / 46 m 5,122 ft / 1,561 m 157.28° 143.60° Asphalt 0 ft / 0 m 200 ft / 61 m
19 98 ft / 30 m 5,008 ft / 1,527 m 209.05° 195.37° Asphalt 0 ft / 0 m 0 ft / 0 m
32 151 ft / 46 m 5,122 ft / 1,561 m 337.28° 323.60° Asphalt 0 ft / 0 m 200 ft / 61 m

KSQL

Details ICAO KSQL (SQL)
Name San Carlos
Region United States
Timezone America/Los_Angeles (UTC-7.0)
Stats Elevation 5 ft / 2 m (AMSL)
Location 37.511735° -122.249386°
Runways 1
Magnetic Variation 13.379° E

METAR

KSQL 270555Z AUTO 00000KT 10SM CLR 13/09 A3004 RMK AO2

Decode

TAF

Not found

Destination Runways

ID Width Length Bearing (true) Bearing (mag) Surface Threshold Offset Overrun Length
12 75 ft / 23 m 2,619 ft / 798 m 138.39° 125.01° Asphalt 0 ft / 0 m 299 ft / 91 m
30 75 ft / 23 m 2,619 ft / 798 m 318.40° 305.02° Asphalt 0 ft / 0 m 135 ft / 41 m

Popular Alternatives